Latest Weather Observations for Parkes Airport

IDN60801

Issued at 2:04 pm EST Monday 25 July 2016 (issued every 30 minutes, with the page automatically refreshed every 10 minutes)

About weather observations | Map of weather stations | Latest weather observations for NSW | Other Formats
Station Details ID: 065068 Name: PARKES AIRPORT AWS Lat: -33.13 Lon: 148.24 Height: 323.3 m
Data from the previous 72 hours. | See also: Recent months at Parkes Airport
Date/Time
EST
Temp
°C
App
Temp
°C
Dew
Point
°C
Rel
Hum
%
Delta-T
°C
Wind Press
QNH
hPa
Press
MSL
hPa
Rain since
9am
mm
Dir  Spd
km/h
Gust
km/h
Spd
kts
Gust
kts
25/02:00pm 8.6 3.7 5.2 79 1.5 WNW 20 26 11 14 1016.6 1017.1 0.0
25/01:30pm 8.8 4.4 5.0 77 1.7 NW 17 24 9 13 1016.8 1017.3 0.0
25/01:00pm 8.5 3.3 5.3 80 1.5 WNW 22 28 12 15 1017.3 1017.7 0.0
25/12:30pm 8.7 3.9 5.4 80 1.5 NW 20 28 11 15 1017.7 1018.1 0.0
25/12:00pm 8.5 3.6 4.9 78 1.6 W 20 28 11 15 1018.1 1018.6 0.0
25/11:30am 8.9 5.0 5.5 79 1.6 WNW 15 19 8 10 1018.2 1018.7 0.0
25/11:00am 8.4 3.0 4.6 77 1.7 WNW 22 32 12 17 1018.4 1018.9 0.0
25/10:30am 8.8 3.5 5.0 77 1.7 W 22 32 12 17 1018.3 1018.8 0.0
25/10:00am 8.9 3.6 4.9 76 1.8 WNW 22 28 12 15 1018.1 1018.6 0.0
25/09:30am 8.5 4.5 5.1 79 1.5 NW 15 20 8 11 1017.9 1018.4 0.0
25/09:00am 7.8 3.4 4.7 81 1.4 WNW 17 20 9 11 1017.7 1018.1 1.0
25/08:30am 7.4 3.7 4.7 83 1.2 NW 13 19 7 10 1017.3 1017.7 1.0
25/08:00am 7.2 2.7 4.3 82 1.3 WNW 17 20 9 11 1016.9 1017.4 1.0
25/07:30am 7.0 2.5 4.0 81 1.3 WNW 17 26 9 14 1016.6 1017.1 1.0
25/07:00am 6.8 3.0 3.9 82 1.3 NW 13 20 7 11 1016.3 1016.8 1.0
25/06:30am 6.5 2.3 4.0 84 1.1 NW 15 17 8 9 1015.9 1016.4 1.0
25/06:00am 6.5 2.3 4.0 84 1.1 WNW 15 20 8 11 1015.4 1015.9 1.0
25/05:30am 6.4 1.5 4.1 85 1.0 NW 19 22 10 12 1014.9 1015.3 1.0
25/05:00am 4.0 0.5 3.6 97 0.2 NNE 11 13 6 7 1014.7 1015.1 1.0
25/04:30am 3.5 -0.1 2.9 96 0.2 NNE 11 15 6 8 1014.3 1014.7 1.0
25/04:00am 3.3 0.1 2.9 97 0.2 NNE 9 11 5 6 1014.1 1014.5 1.0
25/03:30am 3.4 -0.2 3.0 97 0.2 NE 11 13 6 7 1013.9 1014.4 1.0
25/03:00am 2.9 -0.4 2.2 95 0.3 NNE 9 11 5 6 1014.1 1014.5 1.0
25/02:30am 4.5 1.5 4.1 97 0.2 NNE 9 9 5 5 1014.3 1014.7 1.0
25/02:00am 3.7 0.5 3.3 97 0.2 NE 9 11 5 6 1014.5 1014.9 1.0
25/01:30am 3.6 0.9 2.4 92 0.5 NNE 6 9 3 5 1014.4 1014.8 1.0
25/01:00am 5.6 2.9 3.6 87 0.9 WNW 7 11 4 6 1014.4 1014.8 1.0
25/12:30am 7.3 3.4 5.4 88 0.9 NW 15 19 8 10 1014.4 1014.8 1.0
25/12:00am 8.2 4.1 6.0 86 1.0 NW 17 22 9 12 1014.2 1014.6 1.0
 
Date/Time
EST
Temp
°C
App
Temp
°C
Dew
Point
°C
Rel
Hum
%
Delta-T
°C
Wind Press
QNH
hPa
Press
MSL
hPa
Rain since
9am
mm
Dir  Spd
km/h
Gust
km/h
Spd
kts
Gust
kts
24/11:30pm 8.2 5.3 6.3 88 0.9 WNW 11 17 6 9 1014.2 1014.6 1.0
24/11:00pm 8.1 3.4 6.1 87 0.9 NNW 20 26 11 14 1013.7 1014.2 0.8
24/10:30pm 8.3 2.9 6.4 88 0.9 NNW 24 33 13 18 1013.4 1013.9 0.8
24/10:00pm 8.5 3.2 6.6 88 0.9 WNW 24 33 13 18 1014.4 1014.8 0.6
24/09:30pm 8.7 3.9 5.8 82 1.3 N 20 28 11 15 1013.5 1014.0 0.2
24/09:00pm 7.6 3.0 5.6 87 0.9 N 19 22 10 12 1013.3 1013.8 0.2
24/08:30pm 8.5 3.3 5.4 81 1.4 N 22 32 12 17 1013.4 1013.9 0.2
24/08:00pm 9.0 4.7 5.4 78 1.7 N 17 24 9 13 1013.5 1014.0 0.0
24/07:30pm 8.8 4.6 5.5 80 1.5 N 17 24 9 13 1013.4 1013.9 0.0
24/07:00pm 8.4 3.8 5.5 82 1.3 N 19 22 10 12 1013.3 1013.8 0.0
24/06:30pm 8.7 4.4 5.4 80 1.5 N 17 24 9 13 1013.2 1013.7 0.0
24/06:00pm 9.2 4.1 5.8 79 1.6 N 22 30 12 16 1012.9 1013.4 0.0
24/05:30pm 9.4 4.6 5.8 78 1.7 N 20 28 11 15 1013.0 1013.5 0.0
24/05:00pm 9.6 5.0 5.6 76 1.9 N 19 24 10 13 1013.0 1013.5 0.0
24/04:30pm 9.9 4.2 5.1 72 2.2 N 24 30 13 16 1012.8 1013.3 0.0
24/04:00pm 10.0 5.1 5.2 72 2.2 N 20 30 11 16 1012.9 1013.4 0.0
24/03:30pm 10.1 4.4 4.7 69 2.5 NNW 24 32 13 17 1013.0 1013.5 0.0
24/03:00pm 10.7 5.0 4.8 67 2.7 NNW 24 35 13 19 1012.9 1013.4 0.0
24/02:30pm 10.5 5.2 5.1 69 2.5 N 22 30 12 16 1013.3 1013.8 0.0
24/02:00pm 9.7 4.8 4.3 69 2.4 N 19 26 10 14 1014.1 1014.5 0.0
24/01:30pm 9.8 4.8 4.6 70 2.4 N 20 26 11 14 1014.4 1014.8 0.0
24/01:00pm 9.6 5.2 4.6 71 2.3 NNW 17 22 9 12 1014.9 1015.3 0.0
24/12:30pm 8.9 4.4 4.3 73 2.1 NNW 17 20 9 11 1015.7 1016.2 0.0
24/12:00pm 8.6 4.4 3.6 71 2.2 N 15 19 8 10 1016.1 1016.6 0.0
24/11:30am 8.5 4.0 4.1 74 2.0 N 17 20 9 11 1016.6 1017.1 0.0
24/11:00am 7.4 2.8 3.8 78 1.6 NNE 17 20 9 11 1016.8 1017.3 0.0
24/10:30am 6.9 3.3 4.9 87 0.9 NE 13 15 7 8 1017.0 1017.5 0.0
24/10:00am 5.8 2.9 4.8 93 0.4 NE 9 11 5 6 1017.7 1018.1 0.0
24/09:30am 4.7 2.1 4.0 95 0.3 NE 7 9 4 5 1017.7 1018.1 0.0
24/09:00am 3.5 0.7 2.9 96 0.2 N 7 9 4 5 1017.9 1018.4 0.2
24/08:30am 3.0 0.3 2.7 98 0.1 NW 6 7 3 4 1017.5 1017.9 0.2
24/08:00am 2.2 -1.2 2.1 99 0.0 NW 9 9 5 5 1017.1 1017.6 0.2
24/07:30am 1.7 -1.2 1.4 98 0.1 NNE 6 7 3 4 1017.0 1017.5 0.2
24/07:00am 1.3 -1.7 1.0 98 0.1 NNE 6 7 3 4 1016.1 1016.6 0.2
24/06:30am 1.3 -1.9 1.0 98 0.1 ENE 7 11 4 6 1015.9 1016.4 0.2
24/06:00am 1.0 -2.2 0.9 99 0.0 ENE 7 9 4 5 1015.6 1016.1 0.2
24/05:30am 0.4 -2.7 0.1 98 0.1 N 6 9 3 5 1015.5 1016.0 0.2
24/05:00am 0.2 -3.5 -0.1 98 0.1 N 9 11 5 6 1015.5 1016.0 0.2
24/04:30am 0.4 -3.3 0.0 97 0.1 NNE 9 9 5 5 1015.2 1015.7 0.2
24/04:00am 0.7 -3.7 0.4 98 0.1 N 13 13 7 7 1015.4 1015.9 0.2
24/03:30am 0.4 -2.9 0.0 97 0.1 N 7 9 4 5 1016.1 1016.6 0.2
24/03:00am 1.0 -2.6 0.6 97 0.2 N 9 11 5 6 1015.7 1016.2 0.2
24/02:30am 0.4 -3.3 -0.3 95 0.3 N 9 9 5 5 1015.5 1016.0 0.2
24/02:00am 1.3 -2.6 0.9 97 0.2 N 11 13 6 7 1015.8 1016.3 0.2
24/01:30am 1.3 -2.6 0.9 97 0.2 N 11 13 6 7 1016.2 1016.7 0.2
24/01:00am 1.0 -2.3 0.1 94 0.3 N 7 9 4 5 1016.1 1016.6 0.2
24/12:30am 2.1 -1.0 1.4 95 0.3 N 7 9 4 5 1016.6 1017.1 0.2
24/12:00am 2.7 0.3 2.1 96 0.2 N 4 9 2 5 1017.0 1017.5 0.2
 
Date/Time
EST
Temp
°C
App
Temp
°C
Dew
Point
°C
Rel
Hum
%
Delta-T
°C
Wind Press
QNH
hPa
Press
MSL
hPa
Rain since
9am
mm
Dir  Spd
km/h
Gust
km/h
Spd
kts
Gust
kts
23/11:30pm 2.4 0.6 1.1 91 0.5 CALM 0 0 0 0 1016.8 1017.3 0.2
23/11:00pm 3.9 2.3 2.6 91 0.5 CALM 0 0 0 0 1017.0 1017.5 0.2
23/10:30pm 5.2 3.9 3.9 91 0.6 CALM 0 0 0 0 1016.8 1017.3 0.2
23/10:00pm 4.7 2.4 2.9 88 0.7 SSW 4 6 2 3 1017.0 1017.5 0.2
23/09:30pm 4.2 1.2 2.2 87 0.8 SSW 7 9 4 5 1016.8 1017.3 0.2
23/09:00pm 4.1 1.1 2.3 88 0.7 SSW 7 13 4 7 1016.5 1017.0 0.2
23/08:30pm 3.4 1.8 2.2 92 0.5 CALM 0 2 0 1 1016.3 1016.8 0.2
23/08:00pm 3.5 1.1 2.0 90 0.6 S 4 6 2 3 1015.7 1016.2 0.2
23/07:30pm 4.7 1.0 2.4 85 0.9 WSW 11 13 6 7 1015.5 1016.0 0.2
23/07:00pm 6.2 2.7 3.4 82 1.2 WSW 11 13 6 7 1015.5 1016.0 0.2
23/06:30pm 6.7 3.2 3.7 81 1.3 W 11 13 6 7 1015.0 1015.4 0.2
23/06:00pm 8.1 2.6 3.9 75 1.9 W 22 30 12 16 1014.7 1015.1 0.2
23/05:30pm 9.0 4.2 4.4 73 2.1 WSW 19 26 10 14 1014.2 1014.6 0.2
23/05:00pm 9.5 5.2 5.1 74 2.0 W 17 24 9 13 1013.8 1014.3 0.0
23/04:30pm 10.2 6.8 6.0 75 2.0 W 13 20 7 11 1013.0 1013.5 0.0
23/04:00pm 10.3 6.1 5.7 73 2.2 WSW 17 24 9 13 1013.1 1013.6 0.0
23/03:30pm 9.9 5.2 5.3 73 2.1 W 19 22 10 12 1012.7 1013.2 0.0
23/03:00pm 10.4 5.2 5.4 71 2.3 W 22 30 12 16 1012.3 1012.7 0.0
23/02:30pm 9.7 4.2 5.7 76 1.9 W 24 32 13 17 1012.4 1012.8 0.0
23/02:00pm 10.6 4.1 4.9 68 2.6 W 28 37 15 20 1012.1 1012.5 0.0
23/01:30pm 10.4 3.8 4.3 66 2.8 W 28 41 15 22 1012.0 1012.4 0.0
23/01:00pm 10.5 4.0 4.6 67 2.7 W 28 39 15 21 1012.0 1012.4 0.0
23/12:30pm 10.1 3.6 4.5 68 2.5 W 28 37 15 20 1012.1 1012.5 0.0
23/12:00pm 9.7 3.5 4.5 70 2.4 W 26 33 14 18 1012.2 1012.6 0.0
23/11:30am 9.9 2.6 4.3 68 2.5 W 32 41 17 22 1012.3 1012.7 0.0
23/11:00am 9.7 2.3 4.1 68 2.5 W 32 48 17 26 1011.9 1012.3 0.0
23/10:30am 9.6 3.0 4.4 70 2.4 W 28 43 15 23 1011.6 1012.0 0.0
23/10:00am 9.4 2.8 4.0 69 2.4 W 28 43 15 23 1011.4 1011.8 0.0
23/09:30am 9.3 3.4 4.1 70 2.3 W 24 35 13 19 1011.3 1011.7 0.0
23/09:00am 9.3 4.0 5.1 75 1.9 W 22 37 12 20 1010.9 1011.3 3.4
23/08:30am 9.1 4.3 4.5 73 2.1 W 19 24 10 13 1010.5 1011.0 3.4
23/08:00am 8.4 3.9 4.4 76 1.8 W 17 22 9 12 1010.1 1010.6 3.4
23/07:30am 8.2 2.7 4.2 76 1.8 W 22 30 12 16 1009.5 1009.9 3.4
23/07:00am 8.3 2.5 4.3 76 1.8 W 24 37 13 20 1009.2 1009.6 3.4
23/06:30am 8.7 3.3 4.7 76 1.8 W 22 32 12 17 1008.7 1009.1 3.4
23/06:00am 9.3 3.6 4.9 74 2.0 W 24 35 13 19 1008.0 1008.4 3.4
23/05:30am 9.1 3.9 5.3 77 1.7 W 22 28 12 15 1007.3 1007.8 3.4
23/05:00am 10.0 3.2 5.2 72 2.2 W 30 44 16 24 1007.0 1007.4 3.4
23/04:30am 10.3 4.2 6.5 77 1.8 W 28 39 15 21 1006.6 1007.0 3.4
23/04:00am 10.6 5.7 6.7 77 1.9 W 22 30 12 16 1006.2 1006.6 3.4
23/03:30am 11.5 6.1 6.4 71 2.4 W 24 33 13 18 1006.1 1006.5 3.4
23/03:00am 12.0 6.1 5.6 65 3.0 W 26 39 14 21 1005.6 1006.0 3.4
23/02:30am 12.2 5.9 5.6 64 3.1 W 28 39 15 21 1005.5 1005.9 3.4
23/02:00am 12.9 7.0 5.8 62 3.4 W 26 39 14 21 1005.2 1005.6 3.4
23/01:30am 13.5 6.5 5.9 60 3.7 W 32 39 17 21 1005.1 1005.5 3.4
23/01:18am 13.7 7.4 5.8 59 3.8 W 28 46 15 25 1005.1 1005.5 3.4
23/01:00am 13.9 6.9 6.0 59 3.8 W 32 44 17 24 1004.9 1005.3 3.4
23/12:30am 14.3 7.4 7.4 63 3.5 W 33 52 18 28 1004.6 1004.9 3.4
23/12:21am 14.1 8.3 7.9 66 3.1 W 28 50 15 27 1004.4 1004.7 3.4
23/12:00am 14.4 7.8 8.4 67 3.1 WSW 33 46 18 25 1004.5 1004.8 3.4
 
Date/Time
EST
Temp
°C
App
Temp
°C
Dew
Point
°C
Rel
Hum
%
Delta-T
°C
Wind Press
QNH
hPa
Press
MSL
hPa
Rain since
9am
mm
Dir  Spd
km/h
Gust
km/h
Spd
kts
Gust
kts
22/11:30pm 14.3 10.5 12.5 89 1.0 W 24 35 13 19 1004.3 1004.6 3.4
22/11:22pm 14.1 10.5 13.1 94 0.6 W 24 33 13 18 1004.1 1004.5 3.4
22/11:00pm 14.2 8.0 12.8 91 0.8 W 37 56 20 30 1003.6 1004.0 1.8
22/10:55pm 14.4 7.4 12.6 89 1.0 W 41 57 22 31 1003.8 1004.2 1.8
22/10:42pm 17.3 12.2 13.0 76 2.4 NW 32 54 17 29 1003.3 1003.7 0.6
22/10:30pm 18.3 13.7 15.2 82 1.8 NNW 33 50 18 27 1002.4 1002.8 0.6
22/10:01pm 18.9 13.8 15.8 82 1.9 NNW 37 65 20 35 1002.1 1002.4 0.6
22/10:00pm 18.1 13.3 15.5 85 1.6 NNW 35 50 19 27 1002.3 1002.7 0.6
22/09:30pm 18.4 14.0 15.6 84 1.7 NNW 33 52 18 28 1002.5 1002.9 0.4
22/09:29pm 18.5 14.1 15.7 84 1.7 NNW 33 52 18 28 1002.5 1002.9 0.4
22/09:00pm 19.0 14.2 15.7 81 2.0 NNW 35 52 19 28 1002.3 1002.7 0.0
22/08:30pm 19.1 14.8 16.0 82 1.9 NNW 33 48 18 26 1002.4 1002.8 0.0
22/08:00pm 19.1 15.2 16.5 85 1.6 N 32 44 17 24 1002.7 1003.1 0.0
22/07:30pm 18.9 15.2 16.9 88 1.2 N 32 43 17 23 1003.1 1003.5 0.0
22/07:00pm 18.7 14.8 16.9 89 1.1 N 33 44 18 24 1003.2 1003.6 0.0
22/06:30pm 18.9 14.8 16.5 86 1.5 N 33 46 18 25 1003.3 1003.7 0.0
22/06:00pm 18.9 15.5 16.7 87 1.3 N 30 43 16 23 1003.5 1003.9 0.0
22/05:30pm 19.1 15.6 16.5 85 1.6 N 30 41 16 22 1003.5 1003.9 0.0
22/05:00pm 19.1 15.2 16.5 85 1.6 N 32 46 17 25 1003.7 1004.1 0.0
22/04:30pm 19.2 15.7 16.6 85 1.6 N 30 50 16 27 1003.8 1004.2 0.0
22/04:24pm 19.3 16.2 16.5 84 1.7 N 28 50 15 27 1003.7 1004.1 0.0
22/04:00pm 19.3 15.9 16.7 85 1.6 NNW 30 43 16 23 1004.6 1004.9 0.0
22/03:30pm 19.4 15.6 16.8 85 1.6 NNW 32 46 17 25 1004.8 1005.2 0.0
22/03:03pm 19.1 15.1 16.7 86 1.5 N 33 43 18 23 1004.3 1004.6 0.0
22/03:00pm 19.0 15.2 16.6 86 1.5 N 32 43 17 23 1004.6 1004.9 0.0
22/02:30pm 19.0 15.0 16.6 86 1.5 NNW 33 46 18 25 1005.3 1005.7 0.0

Other Formats:

Comma delimited format used in spreadsheet applications
http://www.bom.gov.au/fwo/IDN60801/IDN60801.95717.axf

JavaScript Object Notation format (JSON) in row-major order
http://www.bom.gov.au/fwo/IDN60801/IDN60801.95717.json